createdAt,value
2024-01-25T00:01:55.871Z,8.96
2024-01-25T00:04:22.997Z,8.94
2024-01-25T00:06:49.909Z,8.89
2024-01-25T00:09:16.630Z,8.92
2024-01-25T00:11:43.924Z,8.86
2024-01-25T00:14:10.500Z,8.83
2024-01-25T00:16:37.674Z,8.90
2024-01-25T00:19:04.305Z,8.81
2024-01-25T00:21:30.943Z,8.87
2024-01-25T00:23:57.589Z,8.81
2024-01-25T00:26:24.122Z,8.75
2024-01-25T00:28:50.678Z,8.66
2024-01-25T00:31:17.387Z,8.78
2024-01-25T00:33:44.085Z,8.73
2024-01-25T00:36:11.190Z,8.78
2024-01-25T00:38:37.872Z,8.81
2024-01-25T00:41:04.437Z,8.78
2024-01-25T00:43:31.172Z,8.80
2024-01-25T00:45:57.955Z,8.91
2024-01-25T00:48:24.783Z,8.81
2024-01-25T00:50:51.456Z,8.87
2024-01-25T00:53:18.097Z,8.77
2024-01-25T00:55:44.782Z,8.78
2024-01-25T00:58:11.560Z,8.82
2024-01-25T01:00:38.425Z,8.84
2024-01-25T01:03:06.339Z,8.64
2024-01-25T01:05:33.166Z,8.64
2024-01-25T01:08:00.073Z,8.52
2024-01-25T01:10:26.903Z,8.53
2024-01-25T01:12:55.390Z,8.56
2024-01-25T01:15:22.030Z,8.50
2024-01-25T01:17:48.798Z,8.47
2024-01-25T01:20:15.698Z,8.48
2024-01-25T01:22:42.407Z,8.56
2024-01-25T01:25:09.067Z,8.57
2024-01-25T01:27:35.763Z,8.48
2024-01-25T01:30:02.375Z,8.40
2024-01-25T01:32:29.064Z,8.43
2024-01-25T01:34:55.930Z,8.34
2024-01-25T01:37:22.790Z,8.39
2024-01-25T01:39:49.497Z,8.34
2024-01-25T01:42:16.072Z,8.29
2024-01-25T01:44:42.654Z,8.22
2024-01-25T01:47:09.314Z,8.25
2024-01-25T01:49:36.218Z,8.12
2024-01-25T01:52:03.441Z,8.19
2024-01-25T01:54:30.114Z,8.26
2024-01-25T01:56:56.732Z,8.31
2024-01-25T01:59:26.786Z,8.17
2024-01-25T02:01:53.753Z,8.29
2024-01-25T02:04:20.599Z,8.36
2024-01-25T02:06:47.431Z,8.17
2024-01-25T02:09:14.352Z,8.16
2024-01-25T02:11:40.919Z,8.15
2024-01-25T02:14:11.684Z,8.03
2024-01-25T02:16:38.783Z,8.16
2024-01-25T02:19:05.606Z,8.18
2024-01-25T02:21:32.314Z,8.10
2024-01-25T02:23:59.518Z,7.95
2024-01-25T02:26:26.053Z,7.91
2024-01-25T02:28:52.704Z,7.85
2024-01-25T02:31:22.046Z,7.91
2024-01-25T02:33:48.733Z,7.90
2024-01-25T02:36:15.445Z,7.92
2024-01-25T02:38:42.041Z,7.84
2024-01-25T02:41:08.659Z,7.82
2024-01-25T02:43:35.264Z,7.73
2024-01-25T02:46:01.981Z,7.59
2024-01-25T02:48:28.826Z,7.48
2024-01-25T02:50:55.495Z,7.46
2024-01-25T02:53:22.063Z,7.43
2024-01-25T02:55:48.691Z,7.70
2024-01-25T02:58:15.428Z,7.54
2024-01-25T03:00:42.150Z,7.59
2024-01-25T03:03:08.844Z,7.73
2024-01-25T03:05:36.095Z,7.65
2024-01-25T03:08:02.885Z,7.52
2024-01-25T03:10:29.827Z,7.58
2024-01-25T03:12:56.980Z,7.52
2024-01-25T03:15:23.543Z,7.47
2024-01-25T03:17:50.139Z,7.51
2024-01-25T03:20:16.948Z,7.50
2024-01-25T03:22:43.628Z,7.46
2024-01-25T03:25:11.306Z,7.50
2024-01-25T03:27:37.902Z,7.40
2024-01-25T03:30:06.541Z,7.27
2024-01-25T03:32:34.271Z,7.25
2024-01-25T03:35:01.111Z,7.19
2024-01-25T03:37:27.837Z,7.22
2024-01-25T03:39:54.480Z,7.04
2024-01-25T03:42:21.070Z,6.94
2024-01-25T03:44:48.489Z,6.77
2024-01-25T03:47:15.031Z,6.82
2024-01-25T03:49:41.860Z,6.70
2024-01-25T03:52:08.687Z,6.53
2024-01-25T03:54:35.915Z,6.47
2024-01-25T03:57:02.699Z,6.43
2024-01-25T03:59:29.309Z,6.34
2024-01-25T04:01:55.942Z,6.57
2024-01-25T04:04:22.763Z,6.41
2024-01-25T04:06:49.670Z,6.35
2024-01-25T04:09:16.538Z,6.40
2024-01-25T04:11:43.222Z,6.37
2024-01-25T04:14:09.939Z,6.29
2024-01-25T04:16:36.614Z,6.20
2024-01-25T04:19:03.259Z,6.19
2024-01-25T04:21:30.064Z,6.31
2024-01-25T04:23:57.695Z,6.60
2024-01-25T04:26:24.646Z,6.56
2024-01-25T04:28:51.188Z,6.40
2024-01-25T04:31:18.643Z,6.38
2024-01-25T04:33:48.805Z,6.47
2024-01-25T04:36:16.097Z,6.41
2024-01-25T04:38:42.741Z,6.30
2024-01-25T04:41:09.328Z,6.19
2024-01-25T04:43:37.726Z,6.26
2024-01-25T04:46:04.707Z,6.24
2024-01-25T04:48:31.614Z,6.22
2024-01-25T04:50:59.889Z,6.15
2024-01-25T04:53:26.507Z,6.18
2024-01-25T04:55:54.453Z,6.15
2024-01-25T04:58:21.125Z,6.14
2024-01-25T05:00:47.786Z,6.21
2024-01-25T05:03:14.433Z,6.21
2024-01-25T05:05:41.055Z,6.05
2024-01-25T05:08:07.700Z,6.06
2024-01-25T05:10:34.298Z,6.05
2024-01-25T05:13:00.891Z,5.97
2024-01-25T05:15:27.515Z,6.05
2024-01-25T05:17:54.214Z,5.98
2024-01-25T05:20:21.297Z,5.93
2024-01-25T05:22:48.166Z,5.99
2024-01-25T05:25:14.817Z,5.96
2024-01-25T05:27:41.459Z,5.88
2024-01-25T05:30:08.736Z,5.85
2024-01-25T05:32:35.309Z,5.71
2024-01-25T05:35:02.048Z,5.68
2024-01-25T05:37:28.773Z,5.63
2024-01-25T05:39:55.381Z,5.43
2024-01-25T05:42:22.006Z,5.45
2024-01-25T05:44:48.575Z,5.45
2024-01-25T05:47:15.236Z,5.43
2024-01-25T05:49:42.012Z,5.36
2024-01-25T05:52:09.091Z,5.39
2024-01-25T05:54:35.956Z,5.36
2024-01-25T05:57:02.725Z,5.47
2024-01-25T05:59:29.288Z,5.34
2024-01-25T06:01:56.000Z,5.30
2024-01-25T06:04:22.876Z,5.37
2024-01-25T06:06:49.745Z,5.45
2024-01-25T06:09:18.856Z,5.33
2024-01-25T06:11:46.554Z,5.48
2024-01-25T06:14:13.147Z,5.61
2024-01-25T06:16:39.770Z,5.57
2024-01-25T06:19:06.466Z,5.58
2024-01-25T06:21:35.405Z,5.64
2024-01-25T06:24:05.752Z,5.74
2024-01-25T06:26:32.393Z,5.62
2024-01-25T06:28:59.040Z,5.59
2024-01-25T06:31:25.869Z,5.68
2024-01-25T06:33:54.623Z,5.81
2024-01-25T06:36:21.417Z,5.65
2024-01-25T06:38:47.995Z,5.58
2024-01-25T06:41:14.878Z,5.58
2024-01-25T06:43:41.553Z,5.46
2024-01-25T06:46:08.478Z,5.42
2024-01-25T06:48:35.467Z,5.35
2024-01-25T06:51:02.440Z,5.32
2024-01-25T06:53:29.520Z,5.32
2024-01-25T06:55:56.225Z,5.38
2024-01-25T06:58:23.203Z,5.31
2024-01-25T07:00:50.420Z,5.35
2024-01-25T07:03:17.545Z,5.29
2024-01-25T07:05:44.534Z,5.10
2024-01-25T07:08:14.616Z,5.00
2024-01-25T07:10:41.688Z,4.92
2024-01-25T07:13:08.387Z,4.91
2024-01-25T07:15:35.438Z,4.95
2024-01-25T07:18:02.284Z,4.96
2024-01-25T07:20:29.225Z,4.97
2024-01-25T07:22:55.961Z,4.88
2024-01-25T07:25:22.590Z,4.86
2024-01-25T07:27:50.794Z,4.83
2024-01-25T07:30:17.805Z,4.84
2024-01-25T07:32:44.720Z,4.82
2024-01-25T07:35:11.509Z,4.84
2024-01-25T07:37:38.123Z,4.82
2024-01-25T07:40:05.231Z,4.77
2024-01-25T07:42:31.999Z,4.75
2024-01-25T07:44:58.689Z,4.67
2024-01-25T07:47:25.869Z,4.69
2024-01-25T07:49:52.692Z,4.76
2024-01-25T07:52:19.495Z,5.11
2024-01-25T07:54:46.230Z,5.02
2024-01-25T07:57:14.325Z,5.03
2024-01-25T07:59:40.966Z,5.07
2024-01-25T08:02:07.884Z,5.04
2024-01-25T08:04:34.950Z,5.27
2024-01-25T08:07:01.813Z,5.46
2024-01-25T08:09:28.589Z,5.39
2024-01-25T08:11:55.355Z,5.47
2024-01-25T08:14:22.081Z,5.36
2024-01-25T08:16:48.763Z,5.43
2024-01-25T08:19:15.615Z,5.46
2024-01-25T08:21:42.387Z,5.52
2024-01-25T08:24:09.679Z,5.58
2024-01-25T08:26:36.338Z,5.72
2024-01-25T08:29:03.091Z,5.70
2024-01-25T08:31:29.817Z,5.66
2024-01-25T08:33:56.704Z,5.82
2024-01-25T08:36:24.024Z,5.98
2024-01-25T08:38:50.741Z,6.04
2024-01-25T08:41:17.661Z,6.07
2024-01-25T08:43:44.514Z,6.05
2024-01-25T08:46:13.882Z,6.01
2024-01-25T08:48:40.730Z,6.08
2024-01-25T08:51:07.513Z,6.26
2024-01-25T08:53:34.233Z,6.24
2024-01-25T08:56:02.974Z,6.37
2024-01-25T08:58:31.117Z,6.45
2024-01-25T09:00:57.932Z,6.51
2024-01-25T09:03:24.711Z,6.66
2024-01-25T09:05:51.537Z,6.64
2024-01-25T09:08:18.683Z,6.50
2024-01-25T09:10:45.790Z,6.45
2024-01-25T09:13:12.649Z,6.45
2024-01-25T09:15:39.364Z,6.68
2024-01-25T09:18:06.176Z,6.85
2024-01-25T09:20:33.060Z,7.07
2024-01-25T09:22:59.870Z,7.13
2024-01-25T09:25:26.640Z,7.26
2024-01-25T09:27:53.359Z,7.24
2024-01-25T09:30:21.838Z,7.30
2024-01-25T09:32:49.032Z,7.27
2024-01-25T09:35:16.253Z,7.39
2024-01-25T09:37:43.040Z,7.38
2024-01-25T09:40:11.408Z,7.34
2024-01-25T09:42:38.423Z,7.29
2024-01-25T09:45:06.298Z,7.37
2024-01-25T09:47:33.171Z,7.41
2024-01-25T09:50:00.581Z,7.45
2024-01-25T09:52:27.705Z,7.44
2024-01-25T09:54:55.290Z,7.54
2024-01-25T09:57:23.182Z,7.58
2024-01-25T09:59:51.746Z,7.63
2024-01-25T10:02:18.640Z,7.75
2024-01-25T10:04:49.453Z,7.69
2024-01-25T10:07:16.087Z,7.82
2024-01-25T10:09:43.724Z,7.87
2024-01-25T10:12:17.930Z,8.00
2024-01-25T10:14:45.764Z,8.05
2024-01-25T10:17:12.580Z,8.10
2024-01-25T10:19:40.334Z,8.15
2024-01-25T10:22:09.071Z,8.34
2024-01-25T10:24:36.081Z,8.44
2024-01-25T10:27:03.121Z,8.45
2024-01-25T10:29:30.254Z,8.58
2024-01-25T10:31:56.967Z,8.64
2024-01-25T10:34:24.236Z,8.65
2024-01-25T10:36:51.781Z,8.67
2024-01-25T10:39:20.033Z,8.92
2024-01-25T10:41:51.476Z,8.98
2024-01-25T10:44:20.455Z,8.95
2024-01-25T10:46:48.523Z,9.03
2024-01-25T10:49:15.278Z,9.20
2024-01-25T10:51:42.433Z,9.03
2024-01-25T10:54:09.474Z,9.02
2024-01-25T10:56:36.472Z,9.28
2024-01-25T10:59:03.406Z,9.35
2024-01-25T11:01:30.343Z,9.20
2024-01-25T11:03:59.882Z,9.24
2024-01-25T11:09:10.787Z,9.55
2024-01-25T11:11:38.293Z,9.52
2024-01-25T11:14:04.770Z,9.51
2024-01-25T11:16:33.183Z,9.43
2024-01-25T11:19:07.321Z,9.62
2024-01-25T11:21:40.888Z,9.73
2024-01-25T11:24:12.911Z,9.73
2024-01-25T11:26:39.743Z,9.92
2024-01-25T11:29:07.070Z,9.93
2024-01-25T11:31:34.834Z,10.02
2024-01-25T11:34:01.807Z,9.73
2024-01-25T11:36:29.667Z,9.85
2024-01-25T11:39:05.705Z,10.26
2024-01-25T11:41:52.629Z,10.49
2024-01-25T11:44:19.709Z,10.20
2024-01-25T11:46:46.749Z,10.42
2024-01-25T11:49:26.153Z,10.53
2024-01-25T11:54:43.949Z,10.75
2024-01-25T11:57:10.650Z,10.66
2024-01-25T11:59:40.038Z,10.63
2024-01-25T12:02:06.662Z,10.57
2024-01-25T12:04:37.613Z,10.83
2024-01-25T12:07:04.610Z,11.13
2024-01-25T12:09:31.828Z,10.85
2024-01-25T12:11:58.793Z,11.11
2024-01-25T12:14:25.669Z,11.49
2024-01-25T12:16:52.269Z,11.49
2024-01-25T12:19:19.489Z,11.58
2024-01-25T12:21:46.572Z,11.66
2024-01-25T12:24:13.147Z,11.59
2024-01-25T12:26:39.724Z,11.46
2024-01-25T12:29:06.522Z,11.08
2024-01-25T12:31:33.165Z,11.37
2024-01-25T12:34:00.454Z,11.24
2024-01-25T12:38:56.974Z,11.02
2024-01-25T12:41:32.616Z,11.19
2024-01-25T12:44:04.322Z,11.14
2024-01-25T12:49:49.815Z,11.08
2024-01-25T12:52:16.692Z,10.86
2024-01-25T12:55:22.833Z,10.96
2024-01-25T13:06:35.326Z,11.01
2024-01-25T13:09:05.904Z,11.09
2024-01-25T13:14:15.602Z,11.06
2024-01-25T13:28:11.918Z,11.11
2024-01-25T13:33:22.294Z,11.46
2024-01-25T13:35:58.826Z,11.62
2024-01-25T13:50:53.011Z,11.34
2024-01-25T13:53:19.753Z,11.40
2024-01-25T13:55:46.405Z,11.30
2024-01-25T14:00:54.074Z,11.20
2024-01-25T14:03:30.591Z,11.06
2024-01-25T14:05:58.604Z,11.02
2024-01-25T14:08:27.560Z,11.20
2024-01-25T14:11:00.236Z,11.23
2024-01-25T14:13:27.277Z,11.18
2024-01-25T14:15:54.162Z,11.11
2024-01-25T14:18:25.298Z,11.10
2024-01-25T14:20:53.058Z,10.82
2024-01-25T14:23:19.712Z,10.87
2024-01-25T14:25:46.819Z,10.87
2024-01-25T14:28:13.537Z,10.87
2024-01-25T14:30:40.797Z,10.79
2024-01-25T14:33:07.885Z,10.71
2024-01-25T14:35:34.781Z,10.60
2024-01-25T14:38:01.424Z,10.63
2024-01-25T14:40:43.493Z,10.58
2024-01-25T14:43:14.929Z,10.56
2024-01-25T14:45:41.562Z,10.52
2024-01-25T14:48:08.226Z,10.53
2024-01-25T14:50:34.982Z,10.45
2024-01-25T14:53:01.597Z,10.35
2024-01-25T14:55:28.353Z,10.35
2024-01-25T14:57:55.054Z,10.23
2024-01-25T15:00:21.768Z,10.21
2024-01-25T15:02:48.416Z,10.21
2024-01-25T15:05:15.277Z,10.18
2024-01-25T15:07:42.719Z,10.21
2024-01-25T15:10:09.847Z,10.17
2024-01-25T15:12:36.517Z,10.10
2024-01-25T15:15:03.145Z,10.06
2024-01-25T15:17:29.855Z,10.02
2024-01-25T15:19:56.655Z,9.99
2024-01-25T15:22:26.940Z,9.98
2024-01-25T15:24:53.870Z,9.95
2024-01-25T15:27:20.518Z,9.90
2024-01-25T15:29:47.244Z,9.76
2024-01-25T15:32:13.883Z,9.70
2024-01-25T15:34:41.814Z,9.65
2024-01-25T15:37:08.541Z,9.75
2024-01-25T15:39:35.096Z,9.55
2024-01-25T15:42:01.835Z,9.66
2024-01-25T15:44:28.583Z,9.53
2024-01-25T15:46:55.240Z,9.42
2024-01-25T15:49:24.347Z,9.54
2024-01-25T15:51:51.075Z,9.49
2024-01-25T15:54:18.972Z,9.47
2024-01-25T15:56:45.653Z,9.44
2024-01-25T15:59:12.518Z,9.33
2024-01-25T16:01:39.281Z,9.34
2024-01-25T16:04:06.045Z,9.33
2024-01-25T16:06:33.776Z,9.21
2024-01-25T16:09:03.778Z,9.23
2024-01-25T16:11:30.425Z,9.32
2024-01-25T16:13:57.069Z,9.28
2024-01-25T16:16:23.825Z,9.34
2024-01-25T16:18:50.574Z,9.27
2024-01-25T16:21:17.365Z,9.22
2024-01-25T16:23:43.968Z,9.23
2024-01-25T16:26:10.629Z,9.22
2024-01-25T16:28:37.436Z,9.15
2024-01-25T16:31:04.276Z,9.12
2024-01-25T16:33:31.161Z,9.07
2024-01-25T16:35:58.920Z,9.01
2024-01-25T16:38:25.733Z,8.98
2024-01-25T16:40:52.501Z,8.93
2024-01-25T16:43:19.160Z,8.85
2024-01-25T16:45:45.871Z,8.87
2024-01-25T16:48:13.688Z,8.87
2024-01-25T16:50:46.452Z,8.91
2024-01-25T16:53:17.705Z,8.93
2024-01-25T16:55:44.332Z,8.88
2024-01-25T16:58:10.942Z,8.73
2024-01-25T17:00:37.638Z,8.74
2024-01-25T17:03:04.445Z,8.75
2024-01-25T17:05:31.435Z,8.66
2024-01-25T17:07:58.185Z,8.61
2024-01-25T17:10:25.001Z,8.51
2024-01-25T17:12:52.086Z,8.45
2024-01-25T17:15:19.895Z,8.46
2024-01-25T17:17:46.688Z,8.41
2024-01-25T17:20:13.513Z,8.38
2024-01-25T17:22:40.234Z,8.29
2024-01-25T17:25:07.668Z,8.25
2024-01-25T17:27:34.624Z,8.18
2024-01-25T17:30:01.458Z,8.22
2024-01-25T17:32:28.550Z,8.15
2024-01-25T17:34:58.268Z,8.13
2024-01-25T17:37:24.925Z,8.13
2024-01-25T17:39:51.679Z,8.05
2024-01-25T17:42:18.804Z,8.08
2024-01-25T17:44:45.701Z,8.09
2024-01-25T17:47:12.837Z,7.99
2024-01-25T17:49:39.696Z,8.01
2024-01-25T17:52:07.049Z,8.00
2024-01-25T17:54:34.253Z,7.97
2024-01-25T17:57:02.328Z,7.94
2024-01-25T17:59:28.889Z,7.93
2024-01-25T18:01:55.638Z,7.92
2024-01-25T18:04:22.332Z,7.89
2024-01-25T18:06:48.983Z,7.90
2024-01-25T18:09:15.797Z,7.87
2024-01-25T18:11:42.467Z,7.86
2024-01-25T18:14:09.094Z,7.85
2024-01-25T18:16:38.182Z,7.82
2024-01-25T18:19:04.835Z,7.81
2024-01-25T18:21:32.115Z,7.77
2024-01-25T18:23:58.880Z,7.77
2024-01-25T18:26:26.300Z,7.71
2024-01-25T18:28:53.032Z,7.72
2024-01-25T18:31:20.339Z,7.72
2024-01-25T18:33:47.234Z,7.71
2024-01-25T18:36:14.747Z,7.73
2024-01-25T18:38:41.452Z,7.68
2024-01-25T18:41:11.053Z,7.64
2024-01-25T18:43:38.386Z,7.61
2024-01-25T18:46:07.171Z,7.65
2024-01-25T18:48:34.473Z,7.61
2024-01-25T18:51:03.257Z,7.63
2024-01-25T18:53:30.782Z,7.63
2024-01-25T18:55:57.566Z,7.64
2024-01-25T18:58:25.604Z,7.71
2024-01-25T19:00:52.450Z,7.69
2024-01-25T19:03:19.241Z,7.68
2024-01-25T19:05:47.791Z,7.65
2024-01-25T19:08:14.578Z,7.65
2024-01-25T19:10:41.190Z,7.66
2024-01-25T19:13:07.759Z,7.65
2024-01-25T19:15:34.720Z,7.69
2024-01-25T19:18:02.018Z,7.68
2024-01-25T19:20:28.861Z,7.70
2024-01-25T19:22:55.482Z,7.68
2024-01-25T19:25:22.331Z,7.68
2024-01-25T19:27:49.201Z,7.65
2024-01-25T19:30:17.033Z,7.66
2024-01-25T19:32:44.497Z,7.61
2024-01-25T19:35:11.313Z,7.63
2024-01-25T19:37:37.865Z,7.54
2024-01-25T19:40:04.722Z,7.46
2024-01-25T19:42:31.426Z,7.46
2024-01-25T19:44:58.020Z,7.45
2024-01-25T19:47:24.674Z,7.43
2024-01-25T19:49:52.058Z,7.47
2024-01-25T19:52:18.705Z,7.40
2024-01-25T19:54:45.481Z,7.42
2024-01-25T19:57:12.692Z,7.41
2024-01-25T19:59:39.939Z,7.43
2024-01-25T20:02:07.496Z,7.38
2024-01-25T20:04:34.809Z,7.38
2024-01-25T20:07:01.921Z,7.33
2024-01-25T20:09:29.732Z,7.37
2024-01-25T20:11:57.134Z,7.35
2024-01-25T20:14:24.318Z,7.34
2024-01-25T20:16:51.984Z,7.34
2024-01-25T20:19:18.920Z,7.34
2024-01-25T20:21:45.785Z,7.31
2024-01-25T20:24:12.762Z,7.28
2024-01-25T20:26:40.343Z,7.25
2024-01-25T20:29:07.126Z,7.30
2024-01-25T20:31:33.745Z,7.28
2024-01-25T20:34:00.570Z,7.31
2024-01-25T20:36:27.342Z,7.30
2024-01-25T20:38:54.048Z,7.30
2024-01-25T20:41:21.947Z,7.27
2024-01-25T20:43:48.578Z,7.24
2024-01-25T20:46:15.272Z,7.21
2024-01-25T20:48:42.987Z,7.20
2024-01-25T20:51:09.657Z,7.20
2024-01-25T20:53:36.271Z,7.23
2024-01-25T20:56:03.604Z,7.23
2024-01-25T20:58:30.325Z,7.20
2024-01-25T21:00:57.274Z,7.26
2024-01-25T21:03:24.157Z,7.27
2024-01-25T21:05:50.953Z,7.26
2024-01-25T21:08:17.681Z,7.24
2024-01-25T21:10:45.738Z,7.24
2024-01-25T21:13:12.725Z,7.23
2024-01-25T21:15:39.367Z,7.26
2024-01-25T21:18:06.591Z,7.27
2024-01-25T21:20:33.881Z,7.24
2024-01-25T21:23:00.746Z,7.29
2024-01-25T21:25:27.387Z,7.27
2024-01-25T21:27:54.035Z,7.24
2024-01-25T21:30:20.746Z,7.19
2024-01-25T21:32:47.513Z,7.19
2024-01-25T21:35:14.472Z,7.14
2024-01-25T21:37:41.154Z,7.13
2024-01-25T21:40:07.983Z,7.14
2024-01-25T21:42:38.425Z,7.15
2024-01-25T21:45:10.519Z,7.18
2024-01-25T21:47:39.621Z,7.14
2024-01-25T21:50:09.865Z,7.14
2024-01-25T21:52:36.994Z,7.21
2024-01-25T21:55:07.935Z,7.18
2024-01-25T21:57:34.918Z,7.18
2024-01-25T22:00:01.631Z,7.13
2024-01-25T22:02:28.394Z,7.13
2024-01-25T22:04:55.033Z,7.13
2024-01-25T22:07:21.696Z,7.18
2024-01-25T22:09:48.352Z,7.21
2024-01-25T22:12:14.980Z,7.21
2024-01-25T22:14:41.753Z,7.19
2024-01-25T22:17:08.411Z,7.17
2024-01-25T22:19:35.301Z,7.16
2024-01-25T22:22:01.954Z,7.14
2024-01-25T22:24:28.655Z,7.18
2024-01-25T22:26:55.293Z,7.19
2024-01-25T22:29:21.884Z,7.13
2024-01-25T22:31:48.458Z,7.17
2024-01-25T22:34:15.437Z,7.15
2024-01-25T22:36:42.736Z,7.17
2024-01-25T22:39:09.362Z,7.18
2024-01-25T22:41:36.036Z,7.13
2024-01-25T22:44:02.630Z,7.14
2024-01-25T22:46:29.346Z,7.14
2024-01-25T22:48:57.194Z,7.12
2024-01-25T22:51:23.982Z,7.12
2024-01-25T22:53:50.712Z,7.16
2024-01-25T22:56:17.525Z,7.17
2024-01-25T22:58:44.184Z,7.18
2024-01-25T23:01:11.345Z,7.18
2024-01-25T23:03:38.263Z,7.23
2024-01-25T23:06:05.087Z,7.29
2024-01-25T23:08:31.693Z,7.29
2024-01-25T23:10:58.738Z,7.29
2024-01-25T23:13:25.731Z,7.32
2024-01-25T23:15:52.647Z,7.29
2024-01-25T23:18:19.637Z,7.26
2024-01-25T23:20:46.384Z,7.25
2024-01-25T23:23:14.693Z,7.23
2024-01-25T23:25:41.895Z,7.22
2024-01-25T23:28:08.536Z,7.20
2024-01-25T23:30:35.312Z,7.16
2024-01-25T23:33:02.130Z,7.13
2024-01-25T23:35:29.512Z,7.13
2024-01-25T23:37:56.224Z,7.12
2024-01-25T23:40:23.066Z,7.16
2024-01-25T23:42:50.007Z,7.18
2024-01-25T23:45:19.167Z,7.16
2024-01-25T23:47:45.954Z,7.17
2024-01-25T23:50:13.274Z,7.16
2024-01-25T23:52:40.136Z,7.18
2024-01-25T23:55:08.156Z,7.18
2024-01-25T23:57:35.589Z,7.22
